Capitol Logistics 446


KIAD
Washington Dulles International Airport
Dulles, Virginia, US
KRFD
Chicago/Rockford International Airport
Rockford, Illinois, US

Route Details

Aircraft Information
Primary: Boeing 737-800BCF
Backup: Not Available
Route Data
Distance: 626nm
Sched. Duration: 1h 39m
Avg. Duration: 1h 56m (+16m)
Times Flown: 15
Recm'd Route: BUNZZ3 RAMAY Q72 HACKS J149 FWA V340 OXI JOT
Planned Altitude: 36,000ft
Origin Wx: KIAD 251252Z 04005KT 3SM -RA BR FEW012 OVC038 08/06 A3021 RMK AO2 SLP232 P0002 T00780056
Dest. Wx: KRFD 251254Z 02010KT 10SM OVC034 02/M04 A3027 RMK AO2 SLP258 T00221039
Notes:

Financial History
Total Freight: 1,265,967lbs
Average Load: 84,398lbs/flt
Fuel Used: 242,299lbs
Avg. Fuel Used: 16,153lbs/flt
Fuel Expense: $311,165
Avg. Fuel Expense: $20,744
Avg. Fuel Cost: $1.26/lbs
Total Gross Income: $1,670,881
Pilot Pay: $2,315
Total Expenses: $177,857
Total Revenue: $1,176,011
Average Revenue: $111,392.05